sensor_id;sensor_type;location;lat;lon;timestamp;temperature;humidity
19138;DHT22;68178;52.188;5.598;2023-09-30T00:01:26;13.20;99.90
19138;DHT22;68178;52.188;5.598;2023-09-30T00:03:52;13.30;99.90
19138;DHT22;68178;52.188;5.598;2023-09-30T00:06:17;13.20;99.90
19138;DHT22;68178;52.188;5.598;2023-09-30T00:08:43;13.20;99.90
19138;DHT22;68178;52.188;5.598;2023-09-30T00:11:09;13.30;99.90
19138;DHT22;68178;52.188;5.598;2023-09-30T00:13:35;13.40;99.90
19138;DHT22;68178;52.188;5.598;2023-09-30T00:16:00;13.40;99.90
19138;DHT22;68178;52.188;5.598;2023-09-30T00:18:26;13.40;99.90
19138;DHT22;68178;52.188;5.598;2023-09-30T00:20:53;13.40;99.90
19138;DHT22;68178;52.188;5.598;2023-09-30T00:23:18;13.40;99.90
19138;DHT22;68178;52.188;5.598;2023-09-30T00:25:47;13.50;99.90
19138;DHT22;68178;52.188;5.598;2023-09-30T00:28:14;13.50;99.90
19138;DHT22;68178;52.188;5.598;2023-09-30T00:30:40;13.50;99.90
19138;DHT22;68178;52.188;5.598;2023-09-30T00:33:05;13.40;99.90
19138;DHT22;68178;52.188;5.598;2023-09-30T00:35:32;13.40;99.90
19138;DHT22;68178;52.188;5.598;2023-09-30T00:37:58;13.30;99.90
19138;DHT22;68178;52.188;5.598;2023-09-30T00:40:23;13.40;99.90
19138;DHT22;68178;52.188;5.598;2023-09-30T00:42:49;13.50;99.90
19138;DHT22;68178;52.188;5.598;2023-09-30T00:45:14;13.50;99.90
19138;DHT22;68178;52.188;5.598;2023-09-30T00:47:40;13.40;99.90
19138;DHT22;68178;52.188;5.598;2023-09-30T00:50:07;13.50;99.90
19138;DHT22;68178;52.188;5.598;2023-09-30T00:52:35;13.50;99.90
19138;DHT22;68178;52.188;5.598;2023-09-30T00:55:01;13.50;99.90
19138;DHT22;68178;52.188;5.598;2023-09-30T00:57:30;13.50;99.90
19138;DHT22;68178;52.188;5.598;2023-09-30T00:59:56;13.50;99.90
19138;DHT22;68178;52.188;5.598;2023-09-30T01:02:23;13.50;99.90
19138;DHT22;68178;52.188;5.598;2023-09-30T01:04:49;13.50;99.90
19138;DHT22;68178;52.188;5.598;2023-09-30T01:07:15;13.50;99.90
19138;DHT22;68178;52.188;5.598;2023-09-30T01:09:40;13.40;99.90
19138;DHT22;68178;52.188;5.598;2023-09-30T01:12:06;13.40;99.90
19138;DHT22;68178;52.188;5.598;2023-09-30T01:14:35;13.40;99.90
19138;DHT22;68178;52.188;5.598;2023-09-30T01:17:01;13.30;99.90
19138;DHT22;68178;52.188;5.598;2023-09-30T01:19:27;13.30;99.90
19138;DHT22;68178;52.188;5.598;2023-09-30T01:21:59;13.40;99.90
19138;DHT22;68178;52.188;5.598;2023-09-30T01:24:26;13.40;99.90
19138;DHT22;68178;52.188;5.598;2023-09-30T01:26:52;13.30;99.90
19138;DHT22;68178;52.188;5.598;2023-09-30T01:29:18;13.30;99.90
19138;DHT22;68178;52.188;5.598;2023-09-30T01:31:43;13.20;99.90
19138;DHT22;68178;52.188;5.598;2023-09-30T01:34:13;13.20;99.90
19138;DHT22;68178;52.188;5.598;2023-09-30T01:36:39;13.30;99.90
19138;DHT22;68178;52.188;5.598;2023-09-30T01:39:04;13.30;99.90
19138;DHT22;68178;52.188;5.598;2023-09-30T01:41:30;13.30;99.90
19138;DHT22;68178;52.188;5.598;2023-09-30T01:43:55;13.20;99.90
19138;DHT22;68178;52.188;5.598;2023-09-30T01:46:22;13.10;99.90
19138;DHT22;68178;52.188;5.598;2023-09-30T01:48:48;13.00;99.90
19138;DHT22;68178;52.188;5.598;2023-09-30T01:51:13;13.00;99.90
19138;DHT22;68178;52.188;5.598;2023-09-30T01:53:39;13.00;99.90
19138;DHT22;68178;52.188;5.598;2023-09-30T01:56:05;13.10;99.90
19138;DHT22;68178;52.188;5.598;2023-09-30T01:58:31;13.10;99.90
19138;DHT22;68178;52.188;5.598;2023-09-30T02:01:02;13.10;99.90
19138;DHT22;68178;52.188;5.598;2023-09-30T02:03:28;13.10;99.90
19138;DHT22;68178;52.188;5.598;2023-09-30T02:05:55;13.10;99.90
19138;DHT22;68178;52.188;5.598;2023-09-30T02:08:21;13.20;99.90
19138;DHT22;68178;52.188;5.598;2023-09-30T02:10:47;13.10;99.90
19138;DHT22;68178;52.188;5.598;2023-09-30T02:13:13;13.10;99.90
19138;DHT22;68178;52.188;5.598;2023-09-30T02:15:42;12.90;99.90
19138;DHT22;68178;52.188;5.598;2023-09-30T02:18:08;13.00;99.90
19138;DHT22;68178;52.188;5.598;2023-09-30T02:20:34;12.80;99.90
19138;DHT22;68178;52.188;5.598;2023-09-30T02:23:00;12.80;99.90
19138;DHT22;68178;52.188;5.598;2023-09-30T02:25:27;12.70;99.90
19138;DHT22;68178;52.188;5.598;2023-09-30T02:27:54;12.90;99.90
19138;DHT22;68178;52.188;5.598;2023-09-30T02:30:20;12.80;99.90
19138;DHT22;68178;52.188;5.598;2023-09-30T02:32:46;12.80;99.90
19138;DHT22;68178;52.188;5.598;2023-09-30T02:35:12;12.80;99.90
19138;DHT22;68178;52.188;5.598;2023-09-30T02:37:39;12.70;99.90
19138;DHT22;68178;52.188;5.598;2023-09-30T02:40:07;12.70;99.90
19138;DHT22;68178;52.188;5.598;2023-09-30T02:42:39;12.60;99.90
19138;DHT22;68178;52.188;5.598;2023-09-30T02:45:06;12.70;99.90
19138;DHT22;68178;52.188;5.598;2023-09-30T02:47:34;12.70;99.90
19138;DHT22;68178;52.188;5.598;2023-09-30T02:49:59;12.90;99.90
19138;DHT22;68178;52.188;5.598;2023-09-30T02:52:25;12.90;99.90
19138;DHT22;68178;52.188;5.598;2023-09-30T02:54:51;12.90;99.90
19138;DHT22;68178;52.188;5.598;2023-09-30T02:57:20;12.90;99.90
19138;DHT22;68178;52.188;5.598;2023-09-30T02:59:47;12.90;99.90
19138;DHT22;68178;52.188;5.598;2023-09-30T03:02:12;13.00;99.90
19138;DHT22;68178;52.188;5.598;2023-09-30T03:04:38;13.00;99.90
19138;DHT22;68178;52.188;5.598;2023-09-30T03:07:03;13.00;99.90
19138;DHT22;68178;52.188;5.598;2023-09-30T03:09:29;13.10;99.90
19138;DHT22;68178;52.188;5.598;2023-09-30T03:11:55;13.00;99.90
19138;DHT22;68178;52.188;5.598;2023-09-30T03:14:22;13.00;99.90
19138;DHT22;68178;52.188;5.598;2023-09-30T03:16:48;12.90;99.90
19138;DHT22;68178;52.188;5.598;2023-09-30T03:19:14;12.90;99.90
19138;DHT22;68178;52.188;5.598;2023-09-30T03:21:42;12.90;99.90
19138;DHT22;68178;52.188;5.598;2023-09-30T03:24:08;12.90;99.90
19138;DHT22;68178;52.188;5.598;2023-09-30T03:26:34;12.90;99.90
19138;DHT22;68178;52.188;5.598;2023-09-30T03:28:59;12.90;99.90
19138;DHT22;68178;52.188;5.598;2023-09-30T03:31:25;12.90;99.90
19138;DHT22;68178;52.188;5.598;2023-09-30T03:33:51;12.90;99.90
19138;DHT22;68178;52.188;5.598;2023-09-30T03:36:21;12.90;99.90
19138;DHT22;68178;52.188;5.598;2023-09-30T03:38:47;12.90;99.90
19138;DHT22;68178;52.188;5.598;2023-09-30T03:41:13;13.00;99.90
19138;DHT22;68178;52.188;5.598;2023-09-30T03:43:39;13.00;99.90
19138;DHT22;68178;52.188;5.598;2023-09-30T03:46:07;12.90;99.90
19138;DHT22;68178;52.188;5.598;2023-09-30T03:48:33;12.90;99.90
19138;DHT22;68178;52.188;5.598;2023-09-30T03:51:14;12.90;99.90
19138;DHT22;68178;52.188;5.598;2023-09-30T03:53:44;12.80;99.90
19138;DHT22;68178;52.188;5.598;2023-09-30T03:56:11;12.90;99.90
19138;DHT22;68178;52.188;5.598;2023-09-30T03:58:40;12.90;99.90
19138;DHT22;68178;52.188;5.598;2023-09-30T04:01:06;12.90;99.90
19138;DHT22;68178;52.188;5.598;2023-09-30T04:03:33;12.90;99.90
19138;DHT22;68178;52.188;5.598;2023-09-30T04:05:59;12.90;99.90
19138;DHT22;68178;52.188;5.598;2023-09-30T04:08:25;12.80;99.90
19138;DHT22;68178;52.188;5.598;2023-09-30T04:10:50;12.80;99.90
19138;DHT22;68178;52.188;5.598;2023-09-30T04:13:16;12.90;99.90
19138;DHT22;68178;52.188;5.598;2023-09-30T04:15:43;12.90;99.90
19138;DHT22;68178;52.188;5.598;2023-09-30T04:18:10;12.90;99.90
19138;DHT22;68178;52.188;5.598;2023-09-30T04:20:36;12.90;99.90
19138;DHT22;68178;52.188;5.598;2023-09-30T04:23:05;13.00;99.90
19138;DHT22;68178;52.188;5.598;2023-09-30T04:25:32;13.00;99.90
19138;DHT22;68178;52.188;5.598;2023-09-30T04:27:58;13.00;99.90
19138;DHT22;68178;52.188;5.598;2023-09-30T04:30:23;13.00;99.90
19138;DHT22;68178;52.188;5.598;2023-09-30T04:32:49;12.90;99.90
19138;DHT22;68178;52.188;5.598;2023-09-30T04:35:15;12.90;99.90
19138;DHT22;68178;52.188;5.598;2023-09-30T04:37:40;13.00;99.90
19138;DHT22;68178;52.188;5.598;2023-09-30T04:40:08;13.10;99.90
19138;DHT22;68178;52.188;5.598;2023-09-30T04:42:43;13.10;99.90
19138;DHT22;68178;52.188;5.598;2023-09-30T04:45:13;13.00;99.90
19138;DHT22;68178;52.188;5.598;2023-09-30T04:47:42;13.00;99.90
19138;DHT22;68178;52.188;5.598;2023-09-30T04:50:10;13.00;99.90
19138;DHT22;68178;52.188;5.598;2023-09-30T04:52:37;13.00;99.90
19138;DHT22;68178;52.188;5.598;2023-09-30T04:55:04;13.00;99.90
19138;DHT22;68178;52.188;5.598;2023-09-30T04:57:30;13.00;99.90
19138;DHT22;68178;52.188;5.598;2023-09-30T04:59:57;13.00;99.90
19138;DHT22;68178;52.188;5.598;2023-09-30T05:02:23;13.00;99.90
19138;DHT22;68178;52.188;5.598;2023-09-30T05:04:49;13.00;99.90
19138;DHT22;68178;52.188;5.598;2023-09-30T05:07:15;13.10;99.90
19138;DHT22;68178;52.188;5.598;2023-09-30T05:09:40;13.10;99.90
19138;DHT22;68178;52.188;5.598;2023-09-30T05:12:06;13.10;99.90
19138;DHT22;68178;52.188;5.598;2023-09-30T05:14:32;13.10;99.90
19138;DHT22;68178;52.188;5.598;2023-09-30T05:16:58;13.10;99.90
19138;DHT22;68178;52.188;5.598;2023-09-30T05:19:24;13.00;99.90
19138;DHT22;68178;52.188;5.598;2023-09-30T05:21:50;13.10;99.90
19138;DHT22;68178;52.188;5.598;2023-09-30T05:24:16;13.00;99.90
19138;DHT22;68178;52.188;5.598;2023-09-30T05:26:44;13.00;99.90
19138;DHT22;68178;52.188;5.598;2023-09-30T05:29:10;13.00;99.90
19138;DHT22;68178;52.188;5.598;2023-09-30T05:31:36;13.10;99.90
19138;DHT22;68178;52.188;5.598;2023-09-30T05:34:02;13.10;99.90
19138;DHT22;68178;52.188;5.598;2023-09-30T05:36:27;13.10;99.90
19138;DHT22;68178;52.188;5.598;2023-09-30T05:38:54;13.10;99.90
19138;DHT22;68178;52.188;5.598;2023-09-30T05:41:21;13.10;99.90
19138;DHT22;68178;52.188;5.598;2023-09-30T05:43:47;13.10;99.90
19138;DHT22;68178;52.188;5.598;2023-09-30T05:46:12;13.00;99.90
19138;DHT22;68178;52.188;5.598;2023-09-30T05:48:38;12.90;99.90
19138;DHT22;68178;52.188;5.598;2023-09-30T05:51:07;12.90;99.90
19138;DHT22;68178;52.188;5.598;2023-09-30T05:53:32;12.90;99.90
19138;DHT22;68178;52.188;5.598;2023-09-30T05:55:58;12.90;99.90
19138;DHT22;68178;52.188;5.598;2023-09-30T05:58:25;12.90;99.90
19138;DHT22;68178;52.188;5.598;2023-09-30T06:00:52;12.70;99.90
19138;DHT22;68178;52.188;5.598;2023-09-30T06:03:19;12.70;99.90
19138;DHT22;68178;52.188;5.598;2023-09-30T06:05:47;12.80;99.90
19138;DHT22;68178;52.188;5.598;2023-09-30T06:08:14;12.80;99.90
19138;DHT22;68178;52.188;5.598;2023-09-30T06:10:40;12.90;99.90
19138;DHT22;68178;52.188;5.598;2023-09-30T06:13:09;13.00;99.90
19138;DHT22;68178;52.188;5.598;2023-09-30T06:15:40;13.10;99.90
19138;DHT22;68178;52.188;5.598;2023-09-30T06:18:07;13.10;99.90
19138;DHT22;68178;52.188;5.598;2023-09-30T06:20:33;13.10;99.90
19138;DHT22;68178;52.188;5.598;2023-09-30T06:22:59;13.10;99.90
19138;DHT22;68178;52.188;5.598;2023-09-30T06:25:28;13.10;99.90
19138;DHT22;68178;52.188;5.598;2023-09-30T06:27:54;13.20;99.90
19138;DHT22;68178;52.188;5.598;2023-09-30T06:30:23;13.30;99.90
19138;DHT22;68178;52.188;5.598;2023-09-30T06:32:56;13.30;99.90
19138;DHT22;68178;52.188;5.598;2023-09-30T06:35:21;13.30;99.90
19138;DHT22;68178;52.188;5.598;2023-09-30T06:37:48;13.40;99.90
19138;DHT22;68178;52.188;5.598;2023-09-30T06:40:14;13.50;99.90
19138;DHT22;68178;52.188;5.598;2023-09-30T06:42:40;13.50;99.90
19138;DHT22;68178;52.188;5.598;2023-09-30T06:45:06;13.60;99.90
19138;DHT22;68178;52.188;5.598;2023-09-30T06:47:32;13.70;99.90
19138;DHT22;68178;52.188;5.598;2023-09-30T06:50:03;13.80;99.90
19138;DHT22;68178;52.188;5.598;2023-09-30T06:52:33;13.80;99.90
19138;DHT22;68178;52.188;5.598;2023-09-30T06:54:59;13.90;99.90
19138;DHT22;68178;52.188;5.598;2023-09-30T06:57:25;14.00;99.90
19138;DHT22;68178;52.188;5.598;2023-09-30T06:59:51;14.00;99.90
19138;DHT22;68178;52.188;5.598;2023-09-30T07:02:16;14.10;99.90
19138;DHT22;68178;52.188;5.598;2023-09-30T07:04:42;14.10;99.90
19138;DHT22;68178;52.188;5.598;2023-09-30T07:07:07;14.20;99.90
19138;DHT22;68178;52.188;5.598;2023-09-30T07:09:33;14.30;99.90
19138;DHT22;68178;52.188;5.598;2023-09-30T07:11:58;14.30;99.90
19138;DHT22;68178;52.188;5.598;2023-09-30T07:14:24;14.40;99.90
19138;DHT22;68178;52.188;5.598;2023-09-30T07:16:50;14.50;99.90
19138;DHT22;68178;52.188;5.598;2023-09-30T07:19:15;14.60;99.90
19138;DHT22;68178;52.188;5.598;2023-09-30T07:21:41;14.60;99.90
19138;DHT22;68178;52.188;5.598;2023-09-30T07:24:07;14.70;99.90
19138;DHT22;68178;52.188;5.598;2023-09-30T07:26:33;14.70;99.90
19138;DHT22;68178;52.188;5.598;2023-09-30T07:28:58;14.80;99.90
19138;DHT22;68178;52.188;5.598;2023-09-30T07:31:24;14.90;99.90
19138;DHT22;68178;52.188;5.598;2023-09-30T07:33:50;15.00;99.90
19138;DHT22;68178;52.188;5.598;2023-09-30T07:36:16;15.10;99.90
19138;DHT22;68178;52.188;5.598;2023-09-30T07:38:42;15.20;99.90
19138;DHT22;68178;52.188;5.598;2023-09-30T07:41:07;15.20;99.90
19138;DHT22;68178;52.188;5.598;2023-09-30T07:43:35;15.30;99.90
19138;DHT22;68178;52.188;5.598;2023-09-30T07:46:05;15.30;99.90
19138;DHT22;68178;52.188;5.598;2023-09-30T07:48:31;15.30;99.90
19138;DHT22;68178;52.188;5.598;2023-09-30T07:50:58;15.20;99.90
19138;DHT22;68178;52.188;5.598;2023-09-30T07:53:23;15.30;99.90
19138;DHT22;68178;52.188;5.598;2023-09-30T07:55:49;15.50;99.90
19138;DHT22;68178;52.188;5.598;2023-09-30T07:58:14;15.70;99.90
19138;DHT22;68178;52.188;5.598;2023-09-30T08:00:40;15.70;99.90
19138;DHT22;68178;52.188;5.598;2023-09-30T08:03:05;15.80;99.90
19138;DHT22;68178;52.188;5.598;2023-09-30T08:05:31;15.90;99.90
19138;DHT22;68178;52.188;5.598;2023-09-30T08:07:57;16.00;99.90
19138;DHT22;68178;52.188;5.598;2023-09-30T08:10:23;16.10;99.90
19138;DHT22;68178;52.188;5.598;2023-09-30T08:12:48;16.10;99.90
19138;DHT22;68178;52.188;5.598;2023-09-30T08:15:15;16.20;99.90
19138;DHT22;68178;52.188;5.598;2023-09-30T08:17:41;16.30;99.90
19138;DHT22;68178;52.188;5.598;2023-09-30T08:20:07;16.40;99.90
19138;DHT22;68178;52.188;5.598;2023-09-30T08:22:36;16.50;99.90
19138;DHT22;68178;52.188;5.598;2023-09-30T08:25:02;16.50;99.90
19138;DHT22;68178;52.188;5.598;2023-09-30T08:27:28;16.60;99.90
19138;DHT22;68178;52.188;5.598;2023-09-30T08:29:54;16.70;99.90
19138;DHT22;68178;52.188;5.598;2023-09-30T08:32:20;16.80;99.90
19138;DHT22;68178;52.188;5.598;2023-09-30T08:34:46;16.80;99.90
19138;DHT22;68178;52.188;5.598;2023-09-30T08:37:12;16.90;99.90
19138;DHT22;68178;52.188;5.598;2023-09-30T08:39:38;17.00;99.90
19138;DHT22;68178;52.188;5.598;2023-09-30T08:42:09;17.00;99.90
19138;DHT22;68178;52.188;5.598;2023-09-30T08:44:37;17.10;99.90
19138;DHT22;68178;52.188;5.598;2023-09-30T08:47:05;17.20;99.90
19138;DHT22;68178;52.188;5.598;2023-09-30T08:49:34;17.30;99.90
19138;DHT22;68178;52.188;5.598;2023-09-30T08:52:02;17.50;99.90
19138;DHT22;68178;52.188;5.598;2023-09-30T08:54:30;17.40;99.90
19138;DHT22;68178;52.188;5.598;2023-09-30T08:56:56;17.50;99.90
19138;DHT22;68178;52.188;5.598;2023-09-30T08:59:23;17.70;99.90
19138;DHT22;68178;52.188;5.598;2023-09-30T09:01:49;17.80;99.90
19138;DHT22;68178;52.188;5.598;2023-09-30T09:04:15;18.00;99.90
19138;DHT22;68178;52.188;5.598;2023-09-30T09:06:41;18.10;99.90
19138;DHT22;68178;52.188;5.598;2023-09-30T09:09:14;18.10;99.90
19138;DHT22;68178;52.188;5.598;2023-09-30T09:11:40;18.10;99.90
19138;DHT22;68178;52.188;5.598;2023-09-30T09:14:06;18.00;99.90
19138;DHT22;68178;52.188;5.598;2023-09-30T09:16:32;18.10;99.90
19138;DHT22;68178;52.188;5.598;2023-09-30T09:18:58;18.20;99.90
19138;DHT22;68178;52.188;5.598;2023-09-30T09:21:23;18.30;99.90
19138;DHT22;68178;52.188;5.598;2023-09-30T09:23:52;18.40;99.90
19138;DHT22;68178;52.188;5.598;2023-09-30T09:26:26;18.40;99.90
19138;DHT22;68178;52.188;5.598;2023-09-30T09:28:59;18.50;99.90
19138;DHT22;68178;52.188;5.598;2023-09-30T09:31:30;18.60;99.90
19138;DHT22;68178;52.188;5.598;2023-09-30T09:33:56;18.70;99.90
19138;DHT22;68178;52.188;5.598;2023-09-30T09:36:41;18.90;99.90
19138;DHT22;68178;52.188;5.598;2023-09-30T09:39:07;18.90;99.90
19138;DHT22;68178;52.188;5.598;2023-09-30T09:41:51;18.90;99.90
19138;DHT22;68178;52.188;5.598;2023-09-30T09:44:19;18.90;99.90
19138;DHT22;68178;52.188;5.598;2023-09-30T09:46:47;18.90;99.90
19138;DHT22;68178;52.188;5.598;2023-09-30T09:49:16;19.00;99.90
19138;DHT22;68178;52.188;5.598;2023-09-30T09:51:44;19.10;99.90
19138;DHT22;68178;52.188;5.598;2023-09-30T09:54:11;19.30;99.90
19138;DHT22;68178;52.188;5.598;2023-09-30T09:56:39;19.40;99.90
19138;DHT22;68178;52.188;5.598;2023-09-30T09:59:05;19.70;99.90
19138;DHT22;68178;52.188;5.598;2023-09-30T10:01:33;19.90;99.90
19138;DHT22;68178;52.188;5.598;2023-09-30T10:03:58;20.00;99.90
19138;DHT22;68178;52.188;5.598;2023-09-30T10:06:24;20.00;99.90
19138;DHT22;68178;52.188;5.598;2023-09-30T10:08:51;20.10;99.90
19138;DHT22;68178;52.188;5.598;2023-09-30T10:11:18;20.00;99.90
19138;DHT22;68178;52.188;5.598;2023-09-30T10:13:50;19.80;99.90
19138;DHT22;68178;52.188;5.598;2023-09-30T10:19:20;19.40;99.90
19138;DHT22;68178;52.188;5.598;2023-09-30T10:24:58;19.90;99.90
19138;DHT22;68178;52.188;5.598;2023-09-30T10:35:16;20.40;99.90
19138;DHT22;68178;52.188;5.598;2023-09-30T10:37:43;20.50;99.90
19138;DHT22;68178;52.188;5.598;2023-09-30T10:40:08;20.60;99.90
19138;DHT22;68178;52.188;5.598;2023-09-30T10:42:48;20.80;99.90
19138;DHT22;68178;52.188;5.598;2023-09-30T10:50:55;20.80;99.90
19138;DHT22;68178;52.188;5.598;2023-09-30T10:53:22;21.00;99.90
19138;DHT22;68178;52.188;5.598;2023-09-30T10:55:57;20.90;99.90
19138;DHT22;68178;52.188;5.598;2023-09-30T10:58:40;21.10;99.90
19138;DHT22;68178;52.188;5.598;2023-09-30T11:01:06;21.10;99.90
19138;DHT22;68178;52.188;5.598;2023-09-30T11:03:31;21.00;99.90
19138;DHT22;68178;52.188;5.598;2023-09-30T11:05:57;21.10;99.90
19138;DHT22;68178;52.188;5.598;2023-09-30T11:08:23;21.30;99.90
19138;DHT22;68178;52.188;5.598;2023-09-30T11:10:50;21.30;99.90
19138;DHT22;68178;52.188;5.598;2023-09-30T11:13:20;21.10;99.90
19138;DHT22;68178;52.188;5.598;2023-09-30T11:15:46;21.10;99.90
19138;DHT22;68178;52.188;5.598;2023-09-30T11:18:16;20.90;99.90
19138;DHT22;68178;52.188;5.598;2023-09-30T11:20:43;20.70;99.90
19138;DHT22;68178;52.188;5.598;2023-09-30T11:23:13;20.50;99.90
19138;DHT22;68178;52.188;5.598;2023-09-30T11:25:40;20.40;99.90
19138;DHT22;68178;52.188;5.598;2023-09-30T11:28:17;20.40;99.90
19138;DHT22;68178;52.188;5.598;2023-09-30T11:30:56;20.80;99.90
19138;DHT22;68178;52.188;5.598;2023-09-30T11:33:22;21.00;99.90
19138;DHT22;68178;52.188;5.598;2023-09-30T11:36:02;21.20;99.90
19138;DHT22;68178;52.188;5.598;2023-09-30T11:38:28;21.60;99.90
19138;DHT22;68178;52.188;5.598;2023-09-30T11:41:04;21.70;99.90
19138;DHT22;68178;52.188;5.598;2023-09-30T11:43:33;21.90;99.90
19138;DHT22;68178;52.188;5.598;2023-09-30T11:46:08;22.10;99.90
19138;DHT22;68178;52.188;5.598;2023-09-30T11:48:34;22.00;99.90
19138;DHT22;68178;52.188;5.598;2023-09-30T11:51:01;21.60;99.90
19138;DHT22;68178;52.188;5.598;2023-09-30T11:53:31;21.20;99.90
19138;DHT22;68178;52.188;5.598;2023-09-30T11:55:58;21.00;99.90
19138;DHT22;68178;52.188;5.598;2023-09-30T11:58:25;20.70;99.90
19138;DHT22;68178;52.188;5.598;2023-09-30T12:00:54;20.50;99.90
19138;DHT22;68178;52.188;5.598;2023-09-30T12:03:19;20.80;99.90
19138;DHT22;68178;52.188;5.598;2023-09-30T12:05:45;21.20;99.90
19138;DHT22;68178;52.188;5.598;2023-09-30T12:08:11;21.30;99.90
19138;DHT22;68178;52.188;5.598;2023-09-30T12:10:37;21.40;99.90
19138;DHT22;68178;52.188;5.598;2023-09-30T12:13:02;21.50;99.90
19138;DHT22;68178;52.188;5.598;2023-09-30T12:15:28;21.60;99.90
19138;DHT22;68178;52.188;5.598;2023-09-30T12:17:54;21.60;99.90
19138;DHT22;68178;52.188;5.598;2023-09-30T12:20:19;21.70;99.90
19138;DHT22;68178;52.188;5.598;2023-09-30T12:22:46;22.10;99.90
19138;DHT22;68178;52.188;5.598;2023-09-30T12:25:11;22.20;99.90
19138;DHT22;68178;52.188;5.598;2023-09-30T12:27:37;22.50;99.90
19138;DHT22;68178;52.188;5.598;2023-09-30T12:30:05;22.70;99.90
19138;DHT22;68178;52.188;5.598;2023-09-30T12:32:32;22.30;99.90
19138;DHT22;68178;52.188;5.598;2023-09-30T12:34:58;22.50;99.90
19138;DHT22;68178;52.188;5.598;2023-09-30T12:37:23;22.30;99.90
19138;DHT22;68178;52.188;5.598;2023-09-30T12:39:49;22.10;99.90
19138;DHT22;68178;52.188;5.598;2023-09-30T12:42:14;21.70;99.90
19138;DHT22;68178;52.188;5.598;2023-09-30T12:44:42;21.40;99.90
19138;DHT22;68178;52.188;5.598;2023-09-30T12:47:07;21.20;99.90
19138;DHT22;68178;52.188;5.598;2023-09-30T12:49:33;20.80;99.90
19138;DHT22;68178;52.188;5.598;2023-09-30T12:51:58;20.70;99.90
19138;DHT22;68178;52.188;5.598;2023-09-30T12:54:25;20.50;99.90
19138;DHT22;68178;52.188;5.598;2023-09-30T12:56:51;20.40;99.90
19138;DHT22;68178;52.188;5.598;2023-09-30T12:59:17;20.20;99.90
19138;DHT22;68178;52.188;5.598;2023-09-30T13:01:49;20.20;99.90
19138;DHT22;68178;52.188;5.598;2023-09-30T13:04:15;20.30;99.90
19138;DHT22;68178;52.188;5.598;2023-09-30T13:06:41;20.20;99.90
19138;DHT22;68178;52.188;5.598;2023-09-30T13:09:06;20.20;99.90
19138;DHT22;68178;52.188;5.598;2023-09-30T13:11:34;20.20;99.90
19138;DHT22;68178;52.188;5.598;2023-09-30T13:13:59;20.10;99.90
19138;DHT22;68178;52.188;5.598;2023-09-30T13:16:25;20.10;99.90
19138;DHT22;68178;52.188;5.598;2023-09-30T13:18:50;20.10;99.90
19138;DHT22;68178;52.188;5.598;2023-09-30T13:21:18;20.20;99.90
19138;DHT22;68178;52.188;5.598;2023-09-30T13:23:43;20.20;99.90
19138;DHT22;68178;52.188;5.598;2023-09-30T13:26:09;20.50;99.90
19138;DHT22;68178;52.188;5.598;2023-09-30T13:28:34;20.60;99.90
19138;DHT22;68178;52.188;5.598;2023-09-30T13:31:00;20.90;99.90
19138;DHT22;68178;52.188;5.598;2023-09-30T13:33:25;21.20;99.90
19138;DHT22;68178;52.188;5.598;2023-09-30T13:35:51;21.60;99.90
19138;DHT22;68178;52.188;5.598;2023-09-30T13:38:17;22.10;99.90
19138;DHT22;68178;52.188;5.598;2023-09-30T13:40:43;22.40;99.90
19138;DHT22;68178;52.188;5.598;2023-09-30T13:43:09;22.60;99.90
19138;DHT22;68178;52.188;5.598;2023-09-30T13:45:35;23.00;99.90
19138;DHT22;68178;52.188;5.598;2023-09-30T13:48:00;23.20;99.90
19138;DHT22;68178;52.188;5.598;2023-09-30T13:50:26;23.20;99.90
19138;DHT22;68178;52.188;5.598;2023-09-30T13:52:51;23.40;99.90
19138;DHT22;68178;52.188;5.598;2023-09-30T13:55:17;23.70;99.90
19138;DHT22;68178;52.188;5.598;2023-09-30T13:57:47;23.40;99.90
19138;DHT22;68178;52.188;5.598;2023-09-30T14:00:14;23.30;99.90
19138;DHT22;68178;52.188;5.598;2023-09-30T14:02:42;23.20;99.90
19138;DHT22;68178;52.188;5.598;2023-09-30T14:05:08;23.30;99.90
19138;DHT22;68178;52.188;5.598;2023-09-30T14:07:35;23.40;99.90
19138;DHT22;68178;52.188;5.598;2023-09-30T14:10:01;23.30;99.90
19138;DHT22;68178;52.188;5.598;2023-09-30T14:12:27;23.10;99.90
19138;DHT22;68178;52.188;5.598;2023-09-30T14:14:53;23.00;99.90
19138;DHT22;68178;52.188;5.598;2023-09-30T14:17:18;22.90;99.90
19138;DHT22;68178;52.188;5.598;2023-09-30T14:19:44;22.30;99.90
19138;DHT22;68178;52.188;5.598;2023-09-30T14:22:09;22.10;99.90
19138;DHT22;68178;52.188;5.598;2023-09-30T14:24:35;21.70;99.90
19138;DHT22;68178;52.188;5.598;2023-09-30T14:27:01;21.60;99.90
19138;DHT22;68178;52.188;5.598;2023-09-30T14:29:27;21.50;99.90
19138;DHT22;68178;52.188;5.598;2023-09-30T14:31:53;21.50;99.90
19138;DHT22;68178;52.188;5.598;2023-09-30T14:34:19;21.50;99.90
19138;DHT22;68178;52.188;5.598;2023-09-30T14:36:44;21.50;99.90
19138;DHT22;68178;52.188;5.598;2023-09-30T14:39:11;21.50;99.90
19138;DHT22;68178;52.188;5.598;2023-09-30T14:41:36;21.30;99.90
19138;DHT22;68178;52.188;5.598;2023-09-30T14:44:02;21.30;99.90
19138;DHT22;68178;52.188;5.598;2023-09-30T14:46:34;21.10;99.90
19138;DHT22;68178;52.188;5.598;2023-09-30T14:48:59;20.90;99.90
19138;DHT22;68178;52.188;5.598;2023-09-30T14:51:25;20.70;99.90
19138;DHT22;68178;52.188;5.598;2023-09-30T14:53:51;20.50;99.90
19138;DHT22;68178;52.188;5.598;2023-09-30T14:56:18;20.50;99.90
19138;DHT22;68178;52.188;5.598;2023-09-30T14:58:44;20.40;99.90
19138;DHT22;68178;52.188;5.598;2023-09-30T15:01:10;20.30;99.90
19138;DHT22;68178;52.188;5.598;2023-09-30T15:03:36;20.30;99.90
19138;DHT22;68178;52.188;5.598;2023-09-30T15:06:04;20.30;99.90
19138;DHT22;68178;52.188;5.598;2023-09-30T15:08:31;20.20;99.90
19138;DHT22;68178;52.188;5.598;2023-09-30T15:11:00;20.30;99.90
19138;DHT22;68178;52.188;5.598;2023-09-30T15:13:26;20.20;99.90
19138;DHT22;68178;52.188;5.598;2023-09-30T15:15:52;20.30;99.90
19138;DHT22;68178;52.188;5.598;2023-09-30T15:18:17;20.30;99.90
19138;DHT22;68178;52.188;5.598;2023-09-30T15:20:43;20.30;99.90
19138;DHT22;68178;52.188;5.598;2023-09-30T15:23:10;20.20;99.90
19138;DHT22;68178;52.188;5.598;2023-09-30T15:25:42;20.30;99.90
19138;DHT22;68178;52.188;5.598;2023-09-30T15:28:09;20.30;99.90
19138;DHT22;68178;52.188;5.598;2023-09-30T15:30:35;20.30;99.90
19138;DHT22;68178;52.188;5.598;2023-09-30T15:33:01;20.30;99.90
19138;DHT22;68178;52.188;5.598;2023-09-30T15:35:28;20.20;99.90
19138;DHT22;68178;52.188;5.598;2023-09-30T15:37:53;20.10;99.90
19138;DHT22;68178;52.188;5.598;2023-09-30T15:40:19;20.10;99.90
19138;DHT22;68178;52.188;5.598;2023-09-30T15:42:45;20.10;99.90
19138;DHT22;68178;52.188;5.598;2023-09-30T15:45:11;20.10;99.90
19138;DHT22;68178;52.188;5.598;2023-09-30T15:47:38;20.00;99.90